createdAt,value
2023-05-24T00:00:00.655Z,0
2023-05-24T00:05:00.820Z,0
2023-05-24T00:10:00.668Z,0
2023-05-24T00:15:00.663Z,0
2023-05-24T00:20:00.665Z,0
2023-05-24T00:25:00.727Z,0
2023-05-24T00:30:00.664Z,0
2023-05-24T00:35:00.682Z,0
2023-05-24T00:40:00.663Z,0
2023-05-24T00:45:00.668Z,0
2023-05-24T00:50:00.651Z,0
2023-05-24T00:55:00.814Z,0
2023-05-24T01:00:00.665Z,0
2023-05-24T01:05:00.671Z,0
2023-05-24T01:10:00.670Z,0
2023-05-24T01:15:00.668Z,0
2023-05-24T01:20:00.736Z,0
2023-05-24T01:25:00.668Z,0
2023-05-24T01:30:00.685Z,0
2023-05-24T01:35:00.679Z,0
2023-05-24T01:40:00.664Z,0
2023-05-24T01:45:00.688Z,0
2023-05-24T01:50:00.773Z,0
2023-05-24T01:55:00.640Z,0
2023-05-24T02:00:00.672Z,0
2023-05-24T02:05:00.686Z,0
2023-05-24T02:10:00.705Z,0
2023-05-24T02:15:00.689Z,0
2023-05-24T02:20:00.753Z,0
2023-05-24T02:25:00.656Z,0
2023-05-24T02:30:00.684Z,0
2023-05-24T02:35:00.655Z,0
2023-05-24T02:40:00.644Z,0
2023-05-24T02:45:00.782Z,0
2023-05-24T02:50:00.673Z,0
2023-05-24T02:55:00.756Z,0
2023-05-24T03:00:00.711Z,0
2023-05-24T03:05:00.639Z,8
2023-05-24T03:10:00.693Z,10
2023-05-24T03:15:00.653Z,17
2023-05-24T03:20:00.729Z,31
2023-05-24T03:25:00.689Z,38
2023-05-24T03:30:00.655Z,89
2023-05-24T03:35:00.694Z,125
2023-05-24T03:40:00.678Z,177
2023-05-24T03:45:00.785Z,209
2023-05-24T03:50:00.660Z,246
2023-05-24T03:55:00.692Z,344
2023-05-24T04:00:01.297Z,431
2023-05-24T04:05:00.673Z,546
2023-05-24T04:10:00.685Z,464
2023-05-24T04:15:00.674Z,464
2023-05-24T04:20:00.704Z,588
2023-05-24T04:25:00.750Z,588
2023-05-24T04:30:00.880Z,947
2023-05-24T04:35:00.714Z,1365
2023-05-24T04:40:00.670Z,2221
2023-05-24T04:45:00.729Z,1806
2023-05-24T04:50:01.027Z,2044
2023-05-24T04:55:00.805Z,2602
2023-05-24T05:00:00.709Z,3477
2023-05-24T05:05:00.667Z,3281
2023-05-24T05:10:00.688Z,3750
2023-05-24T05:15:00.713Z,5414
2023-05-24T05:20:00.704Z,9689
2023-05-24T05:25:00.669Z,33167
2023-05-24T05:30:00.672Z,33167
2023-05-24T05:35:00.661Z,6828
2023-05-24T05:40:00.818Z,6031
2023-05-24T05:45:00.680Z,6031
2023-05-24T05:50:00.684Z,5990
2023-05-24T05:55:00.669Z,6797
2023-05-24T06:00:00.792Z,6803
2023-05-24T06:05:00.815Z,32696
2023-05-24T06:10:00.723Z,34411
2023-05-24T06:15:00.686Z,6598
2023-05-24T06:20:00.822Z,9743
2023-05-24T06:25:01.057Z,7690
2023-05-24T06:30:00.721Z,7381
2023-05-24T06:35:00.667Z,8341
2023-05-24T06:40:00.661Z,6853
2023-05-24T06:45:00.945Z,10394
2023-05-24T06:50:00.666Z,7133
2023-05-24T06:55:00.674Z,7832
2023-05-24T07:00:00.669Z,7155
2023-05-24T07:05:00.711Z,5790
2023-05-24T07:10:01.215Z,8316
2023-05-24T07:15:00.667Z,16936
2023-05-24T07:20:00.701Z,7130
2023-05-24T07:25:00.661Z,5418
2023-05-24T07:30:00.675Z,7775
2023-05-24T07:35:00.680Z,9281
2023-05-24T07:40:00.699Z,7885
2023-05-24T07:45:00.653Z,8185
2023-05-24T07:50:00.816Z,8190
2023-05-24T07:55:00.731Z,19625
2023-05-24T08:00:00.671Z,24389
2023-05-24T08:05:00.668Z,44076
2023-05-24T08:10:00.672Z,8993
2023-05-24T08:15:00.696Z,8084
2023-05-24T08:20:00.738Z,6346
2023-05-24T08:25:00.660Z,6443
2023-05-24T08:30:00.796Z,8153
2023-05-24T08:35:18.318Z,11169
2023-05-24T08:40:00.664Z,7602
2023-05-24T08:45:00.694Z,8272
2023-05-24T08:50:00.684Z,8476
2023-05-24T08:55:00.674Z,6679
2023-05-24T09:00:00.682Z,8578
2023-05-24T09:05:00.906Z,4652
2023-05-24T09:10:00.656Z,2879
2023-05-24T09:15:00.690Z,3243
2023-05-24T09:20:00.836Z,3243
2023-05-24T09:25:00.691Z,6733
2023-05-24T09:30:00.693Z,9339
2023-05-24T09:35:00.686Z,8013
2023-05-24T09:40:00.815Z,9047
2023-05-24T09:45:00.647Z,8410
2023-05-24T09:50:00.720Z,10014
2023-05-24T09:55:00.654Z,10014
2023-05-24T10:00:00.669Z,6169
2023-05-24T10:05:00.802Z,7129
2023-05-24T10:10:00.642Z,5809
2023-05-24T10:15:00.648Z,7350
2023-05-24T10:20:00.706Z,7268
2023-05-24T10:25:00.647Z,7295
2023-05-24T10:30:00.664Z,13655
2023-05-24T10:35:00.683Z,11249
2023-05-24T10:40:00.753Z,11233
2023-05-24T10:45:00.663Z,22972
2023-05-24T10:50:00.686Z,31268
2023-05-24T10:55:04.286Z,13630
2023-05-24T11:00:00.652Z,8545
2023-05-24T11:05:00.695Z,5549
2023-05-24T11:10:00.664Z,8582
2023-05-24T11:15:00.669Z,15531
2023-05-24T11:20:00.735Z,6119
2023-05-24T11:25:00.682Z,16274
2023-05-24T11:30:00.734Z,18505
2023-05-24T11:35:00.711Z,13546
2023-05-24T11:40:00.689Z,17159
2023-05-24T11:45:00.637Z,10009
2023-05-24T11:50:00.666Z,19620
2023-05-24T11:55:00.701Z,17398
2023-05-24T12:00:00.695Z,15474
2023-05-24T12:05:00.971Z,11143
2023-05-24T12:10:00.655Z,9897
2023-05-24T12:15:00.687Z,8339
2023-05-24T12:20:00.717Z,7410
2023-05-24T12:25:00.729Z,7410
2023-05-24T12:30:00.705Z,6270
2023-05-24T12:35:00.672Z,6605
2023-05-24T12:40:00.663Z,7018
2023-05-24T12:45:00.697Z,7718
2023-05-24T12:50:00.661Z,8718
2023-05-24T12:55:00.656Z,6498
2023-05-24T13:00:00.673Z,8115
2023-05-24T13:05:00.884Z,8115
2023-05-24T13:10:00.700Z,4578
2023-05-24T13:15:00.727Z,6402
2023-05-24T13:20:00.757Z,5513
2023-05-24T13:25:00.711Z,5513
2023-05-24T13:30:01.845Z,5513
2023-05-24T13:35:00.681Z,5513
2023-05-24T13:40:00.730Z,5513
2023-05-24T13:45:00.761Z,5513
2023-05-24T13:50:00.689Z,5513
2023-05-24T13:55:00.683Z,5513
2023-05-24T14:00:00.773Z,5513
2023-05-24T14:05:17.376Z,5184
2023-05-24T14:10:00.789Z,5184
2023-05-24T14:15:00.707Z,4902
2023-05-24T14:20:00.826Z,4346
2023-05-24T14:25:00.905Z,3409
2023-05-24T14:30:00.856Z,3032
2023-05-24T14:35:00.640Z,3032
2023-05-24T14:40:00.797Z,3032
2023-05-24T14:45:00.721Z,3847
2023-05-24T14:50:00.696Z,3847
2023-05-24T14:55:00.672Z,3847
2023-05-24T15:00:00.707Z,2680
2023-05-24T15:05:00.673Z,2383
2023-05-24T15:10:00.663Z,3424
2023-05-24T15:15:00.671Z,3424
2023-05-24T15:20:00.743Z,3037
2023-05-24T15:25:00.675Z,2686
2023-05-24T15:30:00.753Z,2686
2023-05-24T15:35:00.684Z,2686
2023-05-24T15:40:00.668Z,3021
2023-05-24T15:45:00.697Z,3021
2023-05-24T15:50:00.671Z,3021
2023-05-24T15:55:00.658Z,3216
2023-05-24T16:00:00.922Z,3216
2023-05-24T16:05:00.692Z,3216
2023-05-24T16:10:00.687Z,3216
2023-05-24T16:15:00.972Z,2687
2023-05-24T16:20:00.911Z,2687
2023-05-24T16:25:00.714Z,2687
2023-05-24T16:30:00.647Z,3020
2023-05-24T16:35:00.700Z,3020
2023-05-24T16:50:01.889Z,3020
2023-05-24T16:55:01.195Z,3020
2023-05-24T17:05:00.718Z,3020
2023-05-24T17:10:00.610Z,3020
2023-05-24T17:15:00.893Z,2389
2023-05-24T17:20:00.768Z,2389
2023-05-24T17:25:00.951Z,2125
2023-05-24T17:30:00.876Z,2125
2023-05-24T17:35:00.816Z,1891
2023-05-24T17:40:00.765Z,1682
2023-05-24T17:45:00.867Z,1449
2023-05-24T17:50:00.843Z,1449
2023-05-24T17:55:01.022Z,1329
2023-05-24T18:00:00.843Z,1181
2023-05-24T18:05:00.798Z,1181
2023-05-24T18:10:00.866Z,1181
2023-05-24T18:15:00.787Z,1181
2023-05-24T18:20:01.058Z,1181
2023-05-24T18:25:01.769Z,935
2023-05-24T18:30:00.776Z,935
2023-05-24T18:35:00.999Z,935
2023-05-24T18:40:00.831Z,811
2023-05-24T18:45:00.821Z,739
2023-05-24T18:50:01.005Z,739
2023-05-24T18:55:01.026Z,657
2023-05-24T19:00:00.646Z,584
2023-05-24T19:05:00.890Z,441
2023-05-24T19:10:00.698Z,441
2023-05-24T19:15:00.745Z,317
2023-05-24T19:20:00.988Z,269
2023-05-24T19:25:00.557Z,193
2023-05-24T19:30:00.704Z,139
2023-05-24T19:35:00.691Z,140
2023-05-24T19:40:00.697Z,85
2023-05-24T19:45:00.851Z,61
2023-05-24T19:50:01.175Z,37
2023-05-24T19:55:00.978Z,23
2023-05-24T20:00:00.749Z,16
2023-05-24T20:05:00.565Z,9
2023-05-24T20:10:00.769Z,9
2023-05-24T20:15:00.726Z,9
2023-05-24T20:20:00.795Z,2
2023-05-24T20:25:00.800Z,2
2023-05-24T20:30:00.804Z,0
2023-05-24T20:35:00.770Z,0
2023-05-24T20:40:00.883Z,0
2023-05-24T20:45:00.708Z,0
2023-05-24T20:50:02.234Z,0
2023-05-24T20:55:01.450Z,0
2023-05-24T21:00:00.896Z,0
2023-05-24T21:05:01.033Z,0
2023-05-24T21:10:01.099Z,0
2023-05-24T21:15:00.761Z,0
2023-05-24T21:20:00.764Z,0
2023-05-24T21:25:00.841Z,0
2023-05-24T21:30:01.249Z,0
2023-05-24T21:35:01.349Z,0
2023-05-24T21:40:00.762Z,0
2023-05-24T21:45:00.950Z,0
2023-05-24T21:50:00.816Z,0
2023-05-24T21:55:01.004Z,0
2023-05-24T22:00:00.868Z,0
2023-05-24T22:05:01.009Z,0
2023-05-24T22:10:00.692Z,0
2023-05-24T22:15:00.677Z,0
2023-05-24T22:20:00.997Z,0
2023-05-24T22:25:03.139Z,0
2023-05-24T22:30:00.681Z,0
2023-05-24T22:35:00.701Z,0
2023-05-24T22:40:00.754Z,0
2023-05-24T22:45:00.880Z,0
2023-05-24T22:50:00.929Z,0
2023-05-24T22:55:00.737Z,0
2023-05-24T23:00:00.885Z,0
2023-05-24T23:05:00.768Z,0
2023-05-24T23:10:00.880Z,0
2023-05-24T23:15:00.815Z,0
2023-05-24T23:20:00.880Z,0
2023-05-24T23:25:00.992Z,0
